NCAR-RAP Real-Time Weather Data

Output produced by METARs form (17 September 2019  16:12 UTC)
found at http://weather.rap.ucar.edu/surface/
 
KPVD 171551Z 04014G19KT 10SM FEW050 FEW300 21/08 A3012 RMK AO2 SLP200 T02110078
KPVD 171451Z 35013KT 10SM FEW050 FEW300 21/08 A3012 RMK AO2 PK WND 35032/1428 SLP198 T02060078 51002
KPVD 171351Z 36015G19KT 10SM FEW300 19/08 A3012 RMK AO2 SLP198 T01940083
KPVD 171251Z 36010G17KT 10SM FEW300 17/08 A3012 RMK AO2 SLP200 T01720083
KPVD 171151Z 34010KT 10SM CLR 15/08 A3011 RMK AO2 SLP197 T01500078 10150 20106 51014
KPVD 171051Z 35006KT 10SM CLR 13/08 A3010 RMK AO2 SLP193 T01280078
KPVD 170951Z 35008KT 10SM CLR 13/08 A3008 RMK AO2 SLP187 T01280078
KPVD 170851Z AUTO 35006KT 10SM CLR 12/08 A3007 RMK AO2 SLP182 T01220078 56005
KPVD 170751Z AUTO 34006KT 10SM CLR 13/08 A3007 RMK AO2 SLP183 T01280078
KPVD 170651Z AUTO 27003KT 10SM CLR 12/09 A3008 RMK AO2 SLP186 T01170094
KPVD 170551Z AUTO 34005KT 10SM CLR 13/09 A3008 RMK AO2 SLP186 T01330089 10194 20128 50003
KPVD 170451Z AUTO 33005KT 10SM CLR 14/09 A3009 RMK AO2 SLP188 T01390094 402440128
KPVD 170351Z 30003KT 10SM CLR 14/10 A3008 RMK AO2 SLP184 LAST T01440100
KPVD 170251Z 25003KT 10SM FEW055 16/11 A3007 RMK AO2 SLP184 T01560106 51015
KPVD 170051Z 32006KT 10SM CLR 18/11 A3005 RMK AO2 SLP174 T01780106
KPVD 162351Z 33005KT 10SM CLR 19/10 A3003 RMK AO2 SLP168 T01940100 10244 20194 53014
KPVD 162251Z 33006KT 10SM FEW050 FEW140 21/09 A3001 RMK AO2 SLP161 T02110089
KPVD 162151Z 34008KT 10SM FEW045 SCT140 22/09 A3000 RMK AO2 SLP158 T02220094
KPVD 162051Z 30007KT 10SM FEW045 SCT140 23/10 A2999 RMK AO2 SLP155 T02330100 58007
KPVD 161951Z 31009KT 10SM FEW045 SCT130 24/09 A3000 RMK AO2 SLP157 T02390094
KPVD 161851Z 34008KT 310V020 10SM FEW045 SCT130 24/11 A3001 RMK AO2 SLP161 T02390106